sensor_id;sensor_type;location;lat;lon;timestamp;P1;durP1;ratioP1;P2;durP2;ratioP2
422;SDS011;198;48.752;9.180;2022-08-19T00:01:24;19.37;;;10.23;;
422;SDS011;198;48.752;9.180;2022-08-19T00:03:50;18.50;;;10.20;;
422;SDS011;198;48.752;9.180;2022-08-19T00:06:16;18.77;;;10.60;;
422;SDS011;198;48.752;9.180;2022-08-19T00:08:41;21.77;;;11.03;;
422;SDS011;198;48.752;9.180;2022-08-19T00:11:07;17.57;;;9.33;;
422;SDS011;198;48.752;9.180;2022-08-19T00:13:34;17.10;;;9.63;;
422;SDS011;198;48.752;9.180;2022-08-19T00:16:00;17.33;;;10.00;;
422;SDS011;198;48.752;9.180;2022-08-19T00:18:25;19.60;;;11.00;;
422;SDS011;198;48.752;9.180;2022-08-19T00:20:51;19.17;;;10.90;;
422;SDS011;198;48.752;9.180;2022-08-19T00:23:17;17.53;;;9.20;;
422;SDS011;198;48.752;9.180;2022-08-19T00:25:43;15.87;;;9.80;;
422;SDS011;198;48.752;9.180;2022-08-19T00:28:09;17.53;;;10.50;;
422;SDS011;198;48.752;9.180;2022-08-19T00:30:34;22.80;;;11.23;;
422;SDS011;198;48.752;9.180;2022-08-19T00:33:00;22.87;;;11.20;;
422;SDS011;198;48.752;9.180;2022-08-19T00:35:25;23.43;;;10.40;;
422;SDS011;198;48.752;9.180;2022-08-19T00:37:52;20.43;;;10.87;;
422;SDS011;198;48.752;9.180;2022-08-19T00:40:18;22.17;;;10.57;;
422;SDS011;198;48.752;9.180;2022-08-19T00:42:44;25.43;;;13.13;;
422;SDS011;198;48.752;9.180;2022-08-19T00:45:12;21.43;;;11.30;;
422;SDS011;198;48.752;9.180;2022-08-19T00:47:42;21.23;;;11.60;;
422;SDS011;198;48.752;9.180;2022-08-19T00:50:08;18.17;;;9.80;;
422;SDS011;198;48.752;9.180;2022-08-19T00:52:38;20.80;;;10.80;;
422;SDS011;198;48.752;9.180;2022-08-19T00:55:10;20.13;;;11.13;;
422;SDS011;198;48.752;9.180;2022-08-19T00:57:39;22.30;;;11.30;;
422;SDS011;198;48.752;9.180;2022-08-19T01:00:10;20.43;;;10.80;;
422;SDS011;198;48.752;9.180;2022-08-19T01:02:38;23.00;;;11.70;;
422;SDS011;198;48.752;9.180;2022-08-19T01:05:06;20.67;;;10.93;;
422;SDS011;198;48.752;9.180;2022-08-19T01:07:36;22.13;;;11.97;;
422;SDS011;198;48.752;9.180;2022-08-19T01:10:03;22.87;;;10.57;;
422;SDS011;198;48.752;9.180;2022-08-19T01:12:31;22.23;;;11.93;;
422;SDS011;198;48.752;9.180;2022-08-19T01:14:56;24.63;;;13.27;;
422;SDS011;198;48.752;9.180;2022-08-19T01:17:23;21.20;;;10.93;;
422;SDS011;198;48.752;9.180;2022-08-19T01:19:49;21.43;;;10.67;;
422;SDS011;198;48.752;9.180;2022-08-19T01:22:36;21.30;;;11.90;;
422;SDS011;198;48.752;9.180;2022-08-19T01:25:07;19.10;;;9.77;;
422;SDS011;198;48.752;9.180;2022-08-19T01:27:40;19.20;;;10.70;;
422;SDS011;198;48.752;9.180;2022-08-19T01:30:08;20.20;;;11.33;;
422;SDS011;198;48.752;9.180;2022-08-19T01:32:38;23.10;;;10.87;;
422;SDS011;198;48.752;9.180;2022-08-19T01:35:04;24.10;;;12.40;;
422;SDS011;198;48.752;9.180;2022-08-19T01:37:30;21.10;;;11.53;;
422;SDS011;198;48.752;9.180;2022-08-19T01:40:06;21.23;;;9.90;;
422;SDS011;198;48.752;9.180;2022-08-19T01:42:33;16.70;;;9.40;;
422;SDS011;198;48.752;9.180;2022-08-19T01:45:00;21.50;;;11.00;;
422;SDS011;198;48.752;9.180;2022-08-19T01:47:25;16.87;;;9.50;;
422;SDS011;198;48.752;9.180;2022-08-19T01:49:51;18.00;;;9.90;;
422;SDS011;198;48.752;9.180;2022-08-19T01:52:17;18.97;;;9.83;;
422;SDS011;198;48.752;9.180;2022-08-19T01:54:42;19.57;;;10.70;;
422;SDS011;198;48.752;9.180;2022-08-19T01:57:08;22.10;;;11.50;;
422;SDS011;198;48.752;9.180;2022-08-19T01:59:36;21.73;;;11.53;;
422;SDS011;198;48.752;9.180;2022-08-19T02:02:04;23.37;;;11.97;;
422;SDS011;198;48.752;9.180;2022-08-19T02:04:32;23.17;;;12.10;;
422;SDS011;198;48.752;9.180;2022-08-19T02:06:58;18.33;;;10.60;;
422;SDS011;198;48.752;9.180;2022-08-19T02:09:24;27.43;;;12.63;;
422;SDS011;198;48.752;9.180;2022-08-19T02:11:49;33.57;;;14.17;;
422;SDS011;198;48.752;9.180;2022-08-19T02:14:15;21.60;;;11.00;;
422;SDS011;198;48.752;9.180;2022-08-19T02:16:41;23.90;;;11.77;;
422;SDS011;198;48.752;9.180;2022-08-19T02:19:06;28.13;;;13.00;;
422;SDS011;198;48.752;9.180;2022-08-19T02:21:32;29.53;;;12.97;;
422;SDS011;198;48.752;9.180;2022-08-19T02:23:58;26.63;;;11.93;;
422;SDS011;198;48.752;9.180;2022-08-19T02:26:24;29.13;;;11.57;;
422;SDS011;198;48.752;9.180;2022-08-19T02:28:51;25.67;;;12.83;;
422;SDS011;198;48.752;9.180;2022-08-19T02:31:19;24.13;;;12.73;;
422;SDS011;198;48.752;9.180;2022-08-19T02:33:46;31.83;;;12.57;;
422;SDS011;198;48.752;9.180;2022-08-19T02:36:13;23.47;;;13.00;;
422;SDS011;198;48.752;9.180;2022-08-19T02:38:40;31.73;;;14.17;;
422;SDS011;198;48.752;9.180;2022-08-19T02:41:07;35.77;;;13.80;;
422;SDS011;198;48.752;9.180;2022-08-19T02:43:37;34.83;;;14.70;;
422;SDS011;198;48.752;9.180;2022-08-19T02:46:14;30.67;;;13.60;;
422;SDS011;198;48.752;9.180;2022-08-19T02:48:45;26.13;;;13.47;;
422;SDS011;198;48.752;9.180;2022-08-19T02:51:16;25.97;;;12.70;;
422;SDS011;198;48.752;9.180;2022-08-19T02:53:44;24.80;;;12.90;;
422;SDS011;198;48.752;9.180;2022-08-19T02:56:10;28.10;;;13.60;;
422;SDS011;198;48.752;9.180;2022-08-19T02:58:35;29.13;;;15.27;;
422;SDS011;198;48.752;9.180;2022-08-19T03:01:00;30.70;;;15.70;;
422;SDS011;198;48.752;9.180;2022-08-19T03:03:26;24.27;;;12.70;;
422;SDS011;198;48.752;9.180;2022-08-19T03:06:02;30.57;;;14.60;;
422;SDS011;198;48.752;9.180;2022-08-19T03:08:28;27.33;;;13.93;;
422;SDS011;198;48.752;9.180;2022-08-19T03:10:54;32.67;;;14.60;;
422;SDS011;198;48.752;9.180;2022-08-19T03:13:20;38.50;;;16.30;;
422;SDS011;198;48.752;9.180;2022-08-19T03:15:46;30.47;;;15.17;;
422;SDS011;198;48.752;9.180;2022-08-19T03:18:13;35.53;;;15.27;;
422;SDS011;198;48.752;9.180;2022-08-19T03:20:43;34.13;;;14.73;;
422;SDS011;198;48.752;9.180;2022-08-19T03:23:10;35.13;;;16.53;;
422;SDS011;198;48.752;9.180;2022-08-19T03:25:41;33.10;;;16.47;;
422;SDS011;198;48.752;9.180;2022-08-19T03:28:11;35.20;;;16.10;;
422;SDS011;198;48.752;9.180;2022-08-19T03:30:39;33.83;;;15.27;;
422;SDS011;198;48.752;9.180;2022-08-19T03:33:07;33.60;;;15.30;;
422;SDS011;198;48.752;9.180;2022-08-19T03:35:34;32.43;;;15.83;;
422;SDS011;198;48.752;9.180;2022-08-19T03:38:04;32.20;;;15.20;;
422;SDS011;198;48.752;9.180;2022-08-19T03:40:31;33.00;;;13.53;;
422;SDS011;198;48.752;9.180;2022-08-19T03:42:57;30.60;;;14.67;;
422;SDS011;198;48.752;9.180;2022-08-19T03:45:23;29.77;;;15.43;;
422;SDS011;198;48.752;9.180;2022-08-19T03:47:49;32.57;;;16.77;;
422;SDS011;198;48.752;9.180;2022-08-19T03:50:14;30.90;;;16.27;;
422;SDS011;198;48.752;9.180;2022-08-19T03:52:41;37.77;;;18.10;;
422;SDS011;198;48.752;9.180;2022-08-19T03:55:07;33.13;;;16.83;;
422;SDS011;198;48.752;9.180;2022-08-19T03:57:33;35.13;;;16.53;;
422;SDS011;198;48.752;9.180;2022-08-19T03:59:59;34.77;;;17.03;;
422;SDS011;198;48.752;9.180;2022-08-19T04:02:25;39.17;;;17.80;;
422;SDS011;198;48.752;9.180;2022-08-19T04:04:52;35.60;;;17.97;;
422;SDS011;198;48.752;9.180;2022-08-19T04:07:20;35.37;;;17.50;;
422;SDS011;198;48.752;9.180;2022-08-19T04:09:46;32.63;;;15.80;;
422;SDS011;198;48.752;9.180;2022-08-19T04:12:12;39.90;;;16.77;;
422;SDS011;198;48.752;9.180;2022-08-19T04:14:38;39.83;;;19.17;;
422;SDS011;198;48.752;9.180;2022-08-19T04:17:04;35.87;;;17.97;;
422;SDS011;198;48.752;9.180;2022-08-19T04:19:30;37.53;;;16.70;;
422;SDS011;198;48.752;9.180;2022-08-19T04:21:58;34.30;;;16.20;;
422;SDS011;198;48.752;9.180;2022-08-19T04:24:23;33.53;;;16.30;;
422;SDS011;198;48.752;9.180;2022-08-19T04:26:49;39.47;;;17.93;;
422;SDS011;198;48.752;9.180;2022-08-19T04:29:17;33.50;;;16.37;;
422;SDS011;198;48.752;9.180;2022-08-19T04:31:49;37.33;;;18.53;;
422;SDS011;198;48.752;9.180;2022-08-19T04:34:18;35.93;;;16.93;;
422;SDS011;198;48.752;9.180;2022-08-19T04:36:47;32.30;;;15.10;;
422;SDS011;198;48.752;9.180;2022-08-19T04:39:16;33.80;;;17.20;;
422;SDS011;198;48.752;9.180;2022-08-19T04:41:44;39.03;;;17.67;;
422;SDS011;198;48.752;9.180;2022-08-19T04:44:29;40.03;;;16.67;;
422;SDS011;198;48.752;9.180;2022-08-19T04:46:59;39.50;;;16.87;;
422;SDS011;198;48.752;9.180;2022-08-19T04:49:25;45.17;;;19.33;;
422;SDS011;198;48.752;9.180;2022-08-19T04:51:51;39.83;;;19.50;;
422;SDS011;198;48.752;9.180;2022-08-19T04:54:20;38.67;;;18.33;;
422;SDS011;198;48.752;9.180;2022-08-19T04:56:48;41.67;;;19.47;;
422;SDS011;198;48.752;9.180;2022-08-19T04:59:14;49.00;;;20.87;;
422;SDS011;198;48.752;9.180;2022-08-19T05:01:42;36.27;;;18.47;;
422;SDS011;198;48.752;9.180;2022-08-19T05:04:08;47.60;;;18.80;;
422;SDS011;198;48.752;9.180;2022-08-19T05:06:34;40.53;;;17.63;;
422;SDS011;198;48.752;9.180;2022-08-19T05:09:01;42.83;;;17.70;;
422;SDS011;198;48.752;9.180;2022-08-19T05:11:30;36.90;;;18.63;;
422;SDS011;198;48.752;9.180;2022-08-19T05:13:58;42.87;;;19.47;;
422;SDS011;198;48.752;9.180;2022-08-19T05:16:24;46.80;;;19.27;;
422;SDS011;198;48.752;9.180;2022-08-19T05:18:51;36.20;;;17.97;;
422;SDS011;198;48.752;9.180;2022-08-19T05:21:35;46.53;;;17.93;;
422;SDS011;198;48.752;9.180;2022-08-19T05:24:21;39.10;;;18.23;;
422;SDS011;198;48.752;9.180;2022-08-19T05:26:48;40.47;;;18.50;;
422;SDS011;198;48.752;9.180;2022-08-19T05:29:17;39.63;;;18.40;;
422;SDS011;198;48.752;9.180;2022-08-19T05:31:45;37.30;;;17.03;;
422;SDS011;198;48.752;9.180;2022-08-19T05:34:14;41.13;;;19.50;;
422;SDS011;198;48.752;9.180;2022-08-19T05:36:41;41.73;;;18.53;;
422;SDS011;198;48.752;9.180;2022-08-19T05:39:08;42.53;;;20.30;;
422;SDS011;198;48.752;9.180;2022-08-19T05:41:40;37.47;;;17.47;;
422;SDS011;198;48.752;9.180;2022-08-19T05:44:09;39.33;;;18.70;;
422;SDS011;198;48.752;9.180;2022-08-19T05:46:35;31.10;;;15.77;;
422;SDS011;198;48.752;9.180;2022-08-19T05:49:03;36.90;;;17.43;;
422;SDS011;198;48.752;9.180;2022-08-19T05:51:29;37.03;;;17.60;;
422;SDS011;198;48.752;9.180;2022-08-19T05:53:55;36.70;;;18.30;;
422;SDS011;198;48.752;9.180;2022-08-19T05:56:20;31.97;;;16.73;;
422;SDS011;198;48.752;9.180;2022-08-19T05:58:46;33.93;;;16.03;;
422;SDS011;198;48.752;9.180;2022-08-19T06:01:13;32.90;;;17.17;;
422;SDS011;198;48.752;9.180;2022-08-19T06:03:40;41.43;;;19.10;;
422;SDS011;198;48.752;9.180;2022-08-19T06:06:07;35.67;;;17.97;;
422;SDS011;198;48.752;9.180;2022-08-19T06:08:34;33.43;;;18.20;;
422;SDS011;198;48.752;9.180;2022-08-19T06:11:19;47.37;;;17.80;;
422;SDS011;198;48.752;9.180;2022-08-19T06:13:45;31.20;;;16.70;;
422;SDS011;198;48.752;9.180;2022-08-19T06:16:14;38.50;;;17.30;;
422;SDS011;198;48.752;9.180;2022-08-19T06:18:45;33.40;;;15.50;;
422;SDS011;198;48.752;9.180;2022-08-19T06:21:11;35.93;;;16.87;;
422;SDS011;198;48.752;9.180;2022-08-19T06:23:37;36.03;;;16.70;;
422;SDS011;198;48.752;9.180;2022-08-19T06:26:04;35.70;;;16.93;;
422;SDS011;198;48.752;9.180;2022-08-19T06:28:29;33.43;;;17.20;;
422;SDS011;198;48.752;9.180;2022-08-19T06:30:55;35.67;;;16.17;;
422;SDS011;198;48.752;9.180;2022-08-19T06:33:20;41.00;;;16.17;;
422;SDS011;198;48.752;9.180;2022-08-19T06:35:46;35.33;;;16.80;;
422;SDS011;198;48.752;9.180;2022-08-19T06:38:11;47.03;;;17.40;;
422;SDS011;198;48.752;9.180;2022-08-19T06:40:37;43.07;;;19.20;;
422;SDS011;198;48.752;9.180;2022-08-19T06:43:03;38.97;;;18.43;;
422;SDS011;198;48.752;9.180;2022-08-19T06:45:28;33.17;;;17.50;;
422;SDS011;198;48.752;9.180;2022-08-19T06:47:55;37.90;;;17.03;;
422;SDS011;198;48.752;9.180;2022-08-19T06:50:21;38.57;;;17.10;;
422;SDS011;198;48.752;9.180;2022-08-19T06:52:48;38.67;;;19.20;;
422;SDS011;198;48.752;9.180;2022-08-19T06:55:13;48.67;;;18.53;;
422;SDS011;198;48.752;9.180;2022-08-19T06:57:40;48.43;;;20.97;;
422;SDS011;198;48.752;9.180;2022-08-19T07:00:07;38.13;;;18.63;;
422;SDS011;198;48.752;9.180;2022-08-19T07:02:39;32.70;;;17.17;;
422;SDS011;198;48.752;9.180;2022-08-19T07:05:08;34.00;;;17.23;;
422;SDS011;198;48.752;9.180;2022-08-19T07:07:34;35.80;;;17.73;;
422;SDS011;198;48.752;9.180;2022-08-19T07:10:00;40.30;;;19.80;;
422;SDS011;198;48.752;9.180;2022-08-19T07:12:26;41.93;;;17.10;;
422;SDS011;198;48.752;9.180;2022-08-19T07:14:53;40.13;;;18.33;;
422;SDS011;198;48.752;9.180;2022-08-19T07:17:19;35.23;;;16.80;;
422;SDS011;198;48.752;9.180;2022-08-19T07:19:45;36.60;;;19.40;;
422;SDS011;198;48.752;9.180;2022-08-19T07:22:10;32.90;;;15.10;;
422;SDS011;198;48.752;9.180;2022-08-19T07:24:36;37.67;;;17.87;;
422;SDS011;198;48.752;9.180;2022-08-19T07:27:03;35.70;;;17.73;;
422;SDS011;198;48.752;9.180;2022-08-19T07:29:31;32.00;;;17.03;;
422;SDS011;198;48.752;9.180;2022-08-19T07:31:59;51.20;;;19.53;;
422;SDS011;198;48.752;9.180;2022-08-19T07:34:26;36.77;;;18.27;;
422;SDS011;198;48.752;9.180;2022-08-19T07:36:53;33.90;;;17.13;;
422;SDS011;198;48.752;9.180;2022-08-19T07:39:20;33.80;;;17.60;;
422;SDS011;198;48.752;9.180;2022-08-19T07:41:48;38.57;;;17.50;;
422;SDS011;198;48.752;9.180;2022-08-19T07:44:15;38.63;;;18.60;;
422;SDS011;198;48.752;9.180;2022-08-19T07:46:42;37.63;;;18.77;;
422;SDS011;198;48.752;9.180;2022-08-19T07:49:10;35.37;;;17.10;;
422;SDS011;198;48.752;9.180;2022-08-19T07:51:42;32.93;;;16.33;;
422;SDS011;198;48.752;9.180;2022-08-19T07:54:08;24.77;;;13.90;;
422;SDS011;198;48.752;9.180;2022-08-19T07:56:34;37.00;;;17.23;;
422;SDS011;198;48.752;9.180;2022-08-19T07:59:00;30.93;;;15.70;;
422;SDS011;198;48.752;9.180;2022-08-19T08:01:26;37.50;;;16.77;;
422;SDS011;198;48.752;9.180;2022-08-19T08:03:53;34.87;;;14.87;;
422;SDS011;198;48.752;9.180;2022-08-19T08:06:38;38.13;;;16.67;;
422;SDS011;198;48.752;9.180;2022-08-19T08:09:24;32.23;;;16.40;;
422;SDS011;198;48.752;9.180;2022-08-19T08:11:54;35.13;;;17.30;;
422;SDS011;198;48.752;9.180;2022-08-19T08:14:25;36.07;;;16.47;;
422;SDS011;198;48.752;9.180;2022-08-19T08:16:53;32.80;;;15.07;;
422;SDS011;198;48.752;9.180;2022-08-19T08:19:19;29.77;;;15.63;;
422;SDS011;198;48.752;9.180;2022-08-19T08:21:47;30.10;;;15.43;;
422;SDS011;198;48.752;9.180;2022-08-19T08:24:14;30.13;;;14.70;;
422;SDS011;198;48.752;9.180;2022-08-19T08:26:39;40.43;;;17.70;;
422;SDS011;198;48.752;9.180;2022-08-19T08:29:05;34.80;;;15.77;;
422;SDS011;198;48.752;9.180;2022-08-19T08:31:35;37.13;;;16.03;;
422;SDS011;198;48.752;9.180;2022-08-19T08:34:01;38.30;;;17.00;;
422;SDS011;198;48.752;9.180;2022-08-19T08:36:27;31.87;;;14.73;;
422;SDS011;198;48.752;9.180;2022-08-19T08:38:52;34.33;;;17.20;;
422;SDS011;198;48.752;9.180;2022-08-19T08:43:47;33.40;;;16.53;;
422;SDS011;198;48.752;9.180;2022-08-19T08:46:28;36.37;;;16.77;;
422;SDS011;198;48.752;9.180;2022-08-19T08:52:02;31.97;;;16.77;;
422;SDS011;198;48.752;9.180;2022-08-19T08:54:35;36.50;;;18.27;;
422;SDS011;198;48.752;9.180;2022-08-19T08:57:04;43.00;;;17.97;;
422;SDS011;198;48.752;9.180;2022-08-19T08:59:36;34.53;;;15.37;;
422;SDS011;198;48.752;9.180;2022-08-19T09:02:06;31.07;;;16.60;;
422;SDS011;198;48.752;9.180;2022-08-19T09:04:33;34.53;;;15.77;;
422;SDS011;198;48.752;9.180;2022-08-19T09:07:13;39.77;;;16.93;;
422;SDS011;198;48.752;9.180;2022-08-19T09:09:47;36.10;;;15.70;;
422;SDS011;198;48.752;9.180;2022-08-19T09:15:05;43.07;;;17.37;;
422;SDS011;198;48.752;9.180;2022-08-19T09:17:33;26.60;;;14.17;;
422;SDS011;198;48.752;9.180;2022-08-19T09:20:03;32.57;;;16.67;;
422;SDS011;198;48.752;9.180;2022-08-19T09:22:32;32.33;;;15.43;;
422;SDS011;198;48.752;9.180;2022-08-19T09:24:57;27.50;;;13.70;;
422;SDS011;198;48.752;9.180;2022-08-19T09:27:23;29.10;;;14.87;;
422;SDS011;198;48.752;9.180;2022-08-19T09:29:54;33.07;;;15.60;;
422;SDS011;198;48.752;9.180;2022-08-19T09:32:20;36.80;;;16.10;;
422;SDS011;198;48.752;9.180;2022-08-19T09:34:47;32.87;;;15.57;;
422;SDS011;198;48.752;9.180;2022-08-19T09:37:12;30.13;;;16.13;;
422;SDS011;198;48.752;9.180;2022-08-19T09:39:39;36.20;;;15.60;;
422;SDS011;198;48.752;9.180;2022-08-19T09:42:08;38.73;;;17.10;;
422;SDS011;198;48.752;9.180;2022-08-19T09:44:37;29.43;;;15.30;;
422;SDS011;198;48.752;9.180;2022-08-19T09:47:03;30.63;;;15.83;;
422;SDS011;198;48.752;9.180;2022-08-19T09:49:29;29.57;;;15.70;;
422;SDS011;198;48.752;9.180;2022-08-19T09:51:56;29.53;;;13.67;;
422;SDS011;198;48.752;9.180;2022-08-19T09:54:21;28.03;;;12.93;;
422;SDS011;198;48.752;9.180;2022-08-19T09:56:48;33.33;;;14.60;;
422;SDS011;198;48.752;9.180;2022-08-19T09:59:13;24.13;;;13.10;;
422;SDS011;198;48.752;9.180;2022-08-19T10:01:40;22.93;;;12.97;;
422;SDS011;198;48.752;9.180;2022-08-19T10:04:05;26.27;;;14.00;;
422;SDS011;198;48.752;9.180;2022-08-19T10:06:33;28.10;;;13.87;;
422;SDS011;198;48.752;9.180;2022-08-19T10:09:00;32.77;;;14.67;;
422;SDS011;198;48.752;9.180;2022-08-19T10:11:29;32.83;;;12.30;;
422;SDS011;198;48.752;9.180;2022-08-19T10:13:55;23.93;;;12.90;;
422;SDS011;198;48.752;9.180;2022-08-19T10:16:21;24.63;;;13.80;;
422;SDS011;198;48.752;9.180;2022-08-19T10:18:49;25.83;;;12.40;;
422;SDS011;198;48.752;9.180;2022-08-19T10:21:18;33.27;;;12.23;;
422;SDS011;198;48.752;9.180;2022-08-19T10:23:46;31.07;;;13.53;;
422;SDS011;198;48.752;9.180;2022-08-19T10:26:15;22.00;;;10.90;;
422;SDS011;198;48.752;9.180;2022-08-19T10:28:43;23.60;;;13.20;;
422;SDS011;198;48.752;9.180;2022-08-19T10:31:10;27.03;;;13.83;;
422;SDS011;198;48.752;9.180;2022-08-19T10:33:38;24.67;;;12.47;;
422;SDS011;198;48.752;9.180;2022-08-19T10:36:07;21.20;;;13.13;;
422;SDS011;198;48.752;9.180;2022-08-19T10:38:34;25.80;;;14.80;;
422;SDS011;198;48.752;9.180;2022-08-19T10:41:07;23.03;;;10.97;;
422;SDS011;198;48.752;9.180;2022-08-19T10:43:39;27.97;;;13.73;;
422;SDS011;198;48.752;9.180;2022-08-19T10:46:06;31.07;;;12.20;;
422;SDS011;198;48.752;9.180;2022-08-19T10:48:33;40.23;;;12.93;;
422;SDS011;198;48.752;9.180;2022-08-19T10:50:59;18.90;;;12.30;;
422;SDS011;198;48.752;9.180;2022-08-19T10:53:44;21.00;;;11.30;;
422;SDS011;198;48.752;9.180;2022-08-19T10:56:09;20.90;;;10.37;;
422;SDS011;198;48.752;9.180;2022-08-19T10:58:53;19.00;;;10.50;;
422;SDS011;198;48.752;9.180;2022-08-19T11:01:22;19.30;;;10.43;;
422;SDS011;198;48.752;9.180;2022-08-19T11:03:48;19.70;;;9.60;;
422;SDS011;198;48.752;9.180;2022-08-19T11:06:14;22.43;;;10.40;;
422;SDS011;198;48.752;9.180;2022-08-19T11:08:40;21.20;;;10.17;;
422;SDS011;198;48.752;9.180;2022-08-19T11:11:07;19.23;;;10.30;;
422;SDS011;198;48.752;9.180;2022-08-19T11:13:34;15.33;;;9.83;;
422;SDS011;198;48.752;9.180;2022-08-19T11:16:03;22.03;;;10.40;;
422;SDS011;198;48.752;9.180;2022-08-19T11:18:29;15.57;;;8.27;;
422;SDS011;198;48.752;9.180;2022-08-19T11:20:55;20.57;;;10.43;;
422;SDS011;198;48.752;9.180;2022-08-19T11:23:42;16.50;;;8.70;;
422;SDS011;198;48.752;9.180;2022-08-19T11:26:08;15.00;;;9.27;;
422;SDS011;198;48.752;9.180;2022-08-19T11:28:34;16.20;;;9.13;;
422;SDS011;198;48.752;9.180;2022-08-19T11:31:00;15.53;;;9.00;;
422;SDS011;198;48.752;9.180;2022-08-19T11:33:28;19.83;;;8.37;;
422;SDS011;198;48.752;9.180;2022-08-19T11:35:54;15.20;;;8.30;;
422;SDS011;198;48.752;9.180;2022-08-19T11:38:23;21.10;;;8.00;;
422;SDS011;198;48.752;9.180;2022-08-19T11:40:56;15.23;;;8.17;;
422;SDS011;198;48.752;9.180;2022-08-19T11:43:25;19.20;;;9.83;;
422;SDS011;198;48.752;9.180;2022-08-19T11:45:55;14.83;;;8.10;;
422;SDS011;198;48.752;9.180;2022-08-19T11:48:21;17.83;;;7.70;;
422;SDS011;198;48.752;9.180;2022-08-19T11:50:50;13.33;;;7.67;;
422;SDS011;198;48.752;9.180;2022-08-19T11:53:20;10.43;;;6.67;;
422;SDS011;198;48.752;9.180;2022-08-19T11:55:46;16.27;;;9.40;;
422;SDS011;198;48.752;9.180;2022-08-19T11:58:13;20.03;;;8.67;;
422;SDS011;198;48.752;9.180;2022-08-19T12:00:40;11.73;;;7.33;;
422;SDS011;198;48.752;9.180;2022-08-19T12:03:06;14.40;;;7.43;;
422;SDS011;198;48.752;9.180;2022-08-19T12:05:32;14.53;;;7.60;;
422;SDS011;198;48.752;9.180;2022-08-19T12:07:58;19.93;;;9.40;;
422;SDS011;198;48.752;9.180;2022-08-19T12:10:23;13.00;;;7.50;;
422;SDS011;198;48.752;9.180;2022-08-19T12:12:49;14.27;;;8.60;;
422;SDS011;198;48.752;9.180;2022-08-19T12:15:14;14.10;;;7.60;;
422;SDS011;198;48.752;9.180;2022-08-19T12:17:41;9.80;;;6.87;;
422;SDS011;198;48.752;9.180;2022-08-19T12:20:07;11.83;;;6.70;;
422;SDS011;198;48.752;9.180;2022-08-19T12:22:35;14.40;;;7.20;;
422;SDS011;198;48.752;9.180;2022-08-19T12:25:03;14.53;;;6.87;;
422;SDS011;198;48.752;9.180;2022-08-19T12:27:29;27.80;;;8.60;;
422;SDS011;198;48.752;9.180;2022-08-19T12:29:55;16.93;;;7.40;;
422;SDS011;198;48.752;9.180;2022-08-19T12:32:21;10.90;;;6.90;;
422;SDS011;198;48.752;9.180;2022-08-19T12:34:48;8.50;;;5.60;;
422;SDS011;198;48.752;9.180;2022-08-19T12:37:14;13.57;;;7.40;;
422;SDS011;198;48.752;9.180;2022-08-19T12:39:40;9.10;;;5.97;;
422;SDS011;198;48.752;9.180;2022-08-19T12:42:07;12.20;;;6.67;;
422;SDS011;198;48.752;9.180;2022-08-19T12:44:34;12.07;;;7.30;;
422;SDS011;198;48.752;9.180;2022-08-19T12:47:00;12.87;;;7.43;;
422;SDS011;198;48.752;9.180;2022-08-19T12:49:29;18.47;;;10.93;;
422;SDS011;198;48.752;9.180;2022-08-19T12:51:58;14.70;;;9.93;;
422;SDS011;198;48.752;9.180;2022-08-19T12:54:30;20.20;;;11.90;;
422;SDS011;198;48.752;9.180;2022-08-19T12:56:56;15.23;;;9.60;;
422;SDS011;198;48.752;9.180;2022-08-19T12:59:22;19.30;;;11.33;;
422;SDS011;198;48.752;9.180;2022-08-19T13:01:48;30.30;;;12.80;;
422;SDS011;198;48.752;9.180;2022-08-19T13:04:14;22.83;;;12.30;;
422;SDS011;198;48.752;9.180;2022-08-19T13:06:41;23.60;;;12.50;;
422;SDS011;198;48.752;9.180;2022-08-19T13:09:07;24.90;;;12.60;;
422;SDS011;198;48.752;9.180;2022-08-19T13:11:33;25.83;;;13.17;;
422;SDS011;198;48.752;9.180;2022-08-19T13:13:59;27.90;;;13.93;;
422;SDS011;198;48.752;9.180;2022-08-19T13:16:27;27.10;;;14.23;;
422;SDS011;198;48.752;9.180;2022-08-19T13:18:53;27.07;;;14.37;;
422;SDS011;198;48.752;9.180;2022-08-19T13:21:21;36.90;;;18.10;;
422;SDS011;198;48.752;9.180;2022-08-19T13:23:48;37.93;;;16.07;;
422;SDS011;198;48.752;9.180;2022-08-19T13:26:15;32.13;;;17.10;;
422;SDS011;198;48.752;9.180;2022-08-19T13:28:41;42.50;;;20.17;;
422;SDS011;198;48.752;9.180;2022-08-19T13:31:27;37.70;;;17.77;;
422;SDS011;198;48.752;9.180;2022-08-19T13:34:13;42.00;;;20.43;;
422;SDS011;198;48.752;9.180;2022-08-19T13:36:40;44.77;;;19.87;;
422;SDS011;198;48.752;9.180;2022-08-19T13:39:06;40.30;;;19.97;;
422;SDS011;198;48.752;9.180;2022-08-19T13:41:33;37.23;;;16.97;;
422;SDS011;198;48.752;9.180;2022-08-19T13:44:00;41.63;;;20.40;;
422;SDS011;198;48.752;9.180;2022-08-19T13:46:26;47.27;;;21.00;;
422;SDS011;198;48.752;9.180;2022-08-19T13:48:54;35.43;;;18.57;;
422;SDS011;198;48.752;9.180;2022-08-19T13:51:19;41.43;;;20.33;;
422;SDS011;198;48.752;9.180;2022-08-19T13:53:45;43.80;;;21.93;;
422;SDS011;198;48.752;9.180;2022-08-19T13:56:15;43.27;;;19.50;;
422;SDS011;198;48.752;9.180;2022-08-19T13:58:43;44.80;;;21.97;;
422;SDS011;198;48.752;9.180;2022-08-19T14:01:09;44.73;;;21.80;;
422;SDS011;198;48.752;9.180;2022-08-19T14:03:35;40.83;;;19.07;;
422;SDS011;198;48.752;9.180;2022-08-19T14:06:01;42.43;;;21.20;;
422;SDS011;198;48.752;9.180;2022-08-19T14:08:27;52.13;;;25.07;;
422;SDS011;198;48.752;9.180;2022-08-19T14:10:53;52.63;;;24.40;;
422;SDS011;198;48.752;9.180;2022-08-19T14:13:20;48.67;;;23.50;;
422;SDS011;198;48.752;9.180;2022-08-19T14:15:47;49.10;;;22.17;;
422;SDS011;198;48.752;9.180;2022-08-19T14:18:14;55.27;;;23.63;;
422;SDS011;198;48.752;9.180;2022-08-19T14:20:41;50.30;;;23.07;;
422;SDS011;198;48.752;9.180;2022-08-19T14:23:06;53.77;;;24.83;;
422;SDS011;198;48.752;9.180;2022-08-19T14:25:32;47.70;;;23.57;;
422;SDS011;198;48.752;9.180;2022-08-19T14:27:58;42.27;;;19.73;;
422;SDS011;198;48.752;9.180;2022-08-19T14:30:25;45.13;;;22.07;;
422;SDS011;198;48.752;9.180;2022-08-19T14:32:56;46.97;;;21.37;;
422;SDS011;198;48.752;9.180;2022-08-19T14:35:25;43.27;;;20.10;;
422;SDS011;198;48.752;9.180;2022-08-19T14:37:53;31.80;;;17.30;;
422;SDS011;198;48.752;9.180;2022-08-19T14:40:20;39.87;;;22.00;;
422;SDS011;198;48.752;9.180;2022-08-19T14:42:50;41.07;;;19.40;;
422;SDS011;198;48.752;9.180;2022-08-19T14:45:16;40.70;;;19.50;;
422;SDS011;198;48.752;9.180;2022-08-19T14:47:42;36.17;;;19.30;;
422;SDS011;198;48.752;9.180;2022-08-19T14:50:08;35.60;;;18.20;;
422;SDS011;198;48.752;9.180;2022-08-19T14:52:35;32.00;;;16.77;;
422;SDS011;198;48.752;9.180;2022-08-19T14:55:02;41.63;;;17.27;;
422;SDS011;198;48.752;9.180;2022-08-19T14:57:28;37.97;;;18.90;;
422;SDS011;198;48.752;9.180;2022-08-19T14:59:53;35.23;;;18.40;;
422;SDS011;198;48.752;9.180;2022-08-19T15:02:19;24.90;;;13.43;;
422;SDS011;198;48.752;9.180;2022-08-19T15:04:45;29.80;;;16.17;;
422;SDS011;198;48.752;9.180;2022-08-19T15:07:10;37.30;;;18.47;;
422;SDS011;198;48.752;9.180;2022-08-19T15:09:36;21.80;;;12.23;;
422;SDS011;198;48.752;9.180;2022-08-19T15:12:02;34.63;;;17.60;;
422;SDS011;198;48.752;9.180;2022-08-19T15:14:29;28.50;;;15.80;;
422;SDS011;198;48.752;9.180;2022-08-19T15:16:58;31.50;;;16.80;;
422;SDS011;198;48.752;9.180;2022-08-19T15:19:24;35.30;;;18.10;;
422;SDS011;198;48.752;9.180;2022-08-19T15:21:49;35.63;;;16.87;;
422;SDS011;198;48.752;9.180;2022-08-19T15:24:15;25.30;;;14.70;;
422;SDS011;198;48.752;9.180;2022-08-19T15:26:41;31.33;;;16.70;;
422;SDS011;198;48.752;9.180;2022-08-19T15:29:07;31.20;;;15.77;;